Time;durP1;ratioP1;P1;durP2;ratioP2;P2;SDS_P1;SDS_P2;PMS_P1;PMS_P2;Temp;Humidity;BMP_temperature;BMP_pressure;BME280_temperature;BME280_humidity;BME280_pressure;Samples;Min_cycle;Max_cycle;Signal;HPM_P1;HPM_P2
2023/04/10 00:00:21;;;;;;;13.93;7.97;;;;;;;;;;5032221;28;20100;-74
2023/04/10 00:02:48;;;;;;;16.30;8.32;;;;;;;;;;5032366;28;20075;-74
2023/04/10 00:05:15;;;;;;;13.20;8.00;;;;;;;;;;5032322;28;20099;-74
2023/04/10 00:07:41;;;;;;;20.33;8.20;;;;;;;;;;5032241;28;20022;-73
2023/04/10 00:10:07;;;;;;;21.48;8.85;;;;;;;;;;5032621;28;20030;-73
2023/04/10 00:12:35;;;;;;;12.43;8.23;;;;;;;;;;5032025;28;20100;-74
2023/04/10 00:15:01;;;;;;;23.05;7.53;;;;;;;;;;5032097;28;20018;-74
2023/04/10 00:17:27;;;;;;;15.98;8.20;;;;;;;;;;5031922;28;20528;-73
2023/04/10 00:19:53;;;;;;;16.77;7.72;;;;;;;;;;5031992;28;20026;-73
2023/04/10 00:22:19;;;;;;;12.30;7.85;;;;;;;;;;5031856;28;20022;-73
2023/04/10 00:24:45;;;;;;;15.73;8.20;;;;;;;;;;5030445;28;20087;-74
2023/04/10 00:27:11;;;;;;;15.32;8.50;;;;;;;;;;5031743;28;20095;-74
2023/04/10 00:29:37;;;;;;;14.80;7.90;;;;;;;;;;5032142;28;20108;-74
2023/04/10 00:32:03;;;;;;;20.13;8.15;;;;;;;;;;5031685;28;20652;-75
2023/04/10 00:34:30;;;;;;;16.35;8.38;;;;;;;;;;5031783;28;20030;-75
2023/04/10 00:36:56;;;;;;;15.35;9.32;;;;;;;;;;5031706;28;20099;-75
2023/04/10 00:39:22;;;;;;;16.98;7.82;;;;;;;;;;5031539;28;20033;-73
2023/04/10 00:41:48;;;;;;;14.18;7.78;;;;;;;;;;5031563;28;20045;-72
2023/04/10 00:44:14;;;;;;;15.80;8.05;;;;;;;;;;5031568;28;20032;-75
2023/04/10 00:46:40;;;;;;;15.25;7.82;;;;;;;;;;5031652;28;20026;-75
2023/04/10 00:49:08;;;;;;;18.63;8.00;;;;;;;;;;5030141;28;20029;-74
2023/04/10 00:51:34;;;;;;;13.98;7.03;;;;;;;;;;5031359;28;20030;-74
2023/04/10 00:54:01;;;;;;;15.88;7.43;;;;;;;;;;5031862;28;20029;-73
2023/04/10 00:56:30;;;;;;;13.38;6.70;;;;;;;;;;5031485;28;20430;-73
2023/04/10 00:58:56;;;;;;;16.73;6.53;;;;;;;;;;5031236;28;20026;-73
2023/04/10 01:01:22;;;;;;;19.10;6.57;;;;;;;;;;5031383;28;20206;-73
2023/04/10 01:03:49;;;;;;;12.05;6.65;;;;;;;;;;5031313;28;20110;-74
2023/04/10 01:06:26;;;;;;;13.15;8.55;;;;;;;;;;5030604;28;20047;-74
2023/04/10 01:08:55;;;;;;;12.63;6.32;;;;;;;;;;5031409;28;20108;-73
2023/04/10 01:11:27;;;;;;;12.85;6.60;;;;;;;;;;5031192;28;20474;-74
2023/04/10 01:14:15;;;;;;;9.60;5.85;;;;;;;;;;5031373;28;20021;-73
2023/04/10 01:16:53;;;;;;;11.60;5.75;;;;;;;;;;5031248;28;20024;-74
2023/04/10 01:19:30;;;;;;;13.02;6.80;;;;;;;;;;5031172;28;20478;-73
2023/04/10 01:21:58;;;;;;;11.25;5.97;;;;;;;;;;5031256;28;20095;-72
2023/04/10 01:24:42;;;;;;;13.60;5.97;;;;;;;;;;5031062;28;20037;-73
2023/04/10 01:27:20;;;;;;;13.77;5.97;;;;;;;;;;5030981;28;20025;-74
2023/04/10 01:29:48;;;;;;;11.90;6.18;;;;;;;;;;5031136;28;20029;-73
2023/04/10 01:32:17;;;;;;;15.35;5.90;;;;;;;;;;5030978;28;20033;-73
2023/04/10 01:34:47;;;;;;;12.38;6.07;;;;;;;;;;5030944;28;20025;-73
2023/04/10 01:37:16;;;;;;;12.70;6.80;;;;;;;;;;5031003;28;20025;-73
2023/04/10 01:39:43;;;;;;;10.85;5.30;;;;;;;;;;5030939;28;20049;-73
2023/04/10 01:42:11;;;;;;;13.93;6.43;;;;;;;;;;5030753;28;20125;-73
2023/04/10 01:44:40;;;;;;;10.70;6.00;;;;;;;;;;5030850;28;20045;-73
2023/04/10 01:47:07;;;;;;;9.07;6.00;;;;;;;;;;5030902;28;20029;-74
2023/04/10 01:49:36;;;;;;;13.48;6.00;;;;;;;;;;5030782;28;20025;-73
2023/04/10 01:52:02;;;;;;;13.32;6.53;;;;;;;;;;5029542;28;20095;-73
2023/04/10 01:54:30;;;;;;;13.30;6.00;;;;;;;;;;5031313;28;20059;-73
2023/04/10 01:56:57;;;;;;;14.60;6.55;;;;;;;;;;5030910;28;20478;-73
2023/04/10 01:59:23;;;;;;;20.10;7.55;;;;;;;;;;5030709;28;20547;-73
2023/04/10 02:01:55;;;;;;;16.27;6.68;;;;;;;;;;5030767;28;20025;-73
2023/04/10 02:04:21;;;;;;;17.17;6.50;;;;;;;;;;5030791;28;20113;-73
2023/04/10 02:07:05;;;;;;;15.50;6.40;;;;;;;;;;5030619;28;20057;-73
2023/04/10 02:09:34;;;;;;;15.75;7.05;;;;;;;;;;5030729;28;20026;-75
2023/04/10 02:12:05;;;;;;;13.77;6.68;;;;;;;;;;5030606;28;20025;-74
2023/04/10 02:14:33;;;;;;;16.70;6.70;;;;;;;;;;5030725;28;20486;-73
2023/04/10 02:17:00;;;;;;;19.23;6.93;;;;;;;;;;5031670;28;20501;-74
2023/04/10 02:19:27;;;;;;;11.77;6.43;;;;;;;;;;5034136;28;20229;-74
2023/04/10 02:21:53;;;;;;;13.63;6.32;;;;;;;;;;5034546;28;20037;-73
2023/04/10 02:24:20;;;;;;;15.95;6.88;;;;;;;;;;5033980;28;20060;-73
2023/04/10 02:26:52;;;;;;;12.80;7.18;;;;;;;;;;5034446;28;20021;-73
2023/04/10 02:29:18;;;;;;;17.90;7.07;;;;;;;;;;5032681;28;20021;-73
2023/04/10 02:31:45;;;;;;;17.10;7.18;;;;;;;;;;5034085;28;20025;-72
2023/04/10 02:34:11;;;;;;;16.38;7.15;;;;;;;;;;5033896;28;20021;-73
2023/04/10 02:36:38;;;;;;;21.38;7.40;;;;;;;;;;5034010;28;20032;-74
2023/04/10 02:39:04;;;;;;;15.55;7.93;;;;;;;;;;5033802;28;20025;-73
2023/04/10 02:41:30;;;;;;;18.85;7.85;;;;;;;;;;5033678;28;20037;-73
2023/04/10 02:43:57;;;;;;;15.65;6.93;;;;;;;;;;5033638;28;20025;-73
2023/04/10 02:46:23;;;;;;;15.98;8.25;;;;;;;;;;5033821;28;20072;-72
2023/04/10 02:48:49;;;;;;;18.65;7.65;;;;;;;;;;5033617;28;20025;-73
2023/04/10 02:51:15;;;;;;;16.52;7.82;;;;;;;;;;5033607;28;20501;-73
2023/04/10 02:53:41;;;;;;;19.42;8.85;;;;;;;;;;5033600;28;20049;-74
2023/04/10 02:56:08;;;;;;;17.58;8.48;;;;;;;;;;5033491;28;20030;-74
2023/04/10 02:58:34;;;;;;;19.85;9.85;;;;;;;;;;5032257;28;20116;-73
2023/04/10 03:01:00;;;;;;;22.58;9.88;;;;;;;;;;5033641;28;20017;-72
2023/04/10 03:03:26;;;;;;;22.15;10.07;;;;;;;;;;5032523;28;20527;-74
2023/04/10 03:05:53;;;;;;;22.83;10.07;;;;;;;;;;5033176;28;20046;-73
2023/04/10 03:08:19;;;;;;;28.50;11.05;;;;;;;;;;5033391;28;20381;-73
2023/04/10 03:10:47;;;;;;;23.70;10.88;;;;;;;;;;5033206;28;20470;-72
2023/04/10 03:13:14;;;;;;;26.05;11.27;;;;;;;;;;5033213;28;20100;-72
2023/04/10 03:15:40;;;;;;;22.20;10.23;;;;;;;;;;5033268;28;20111;-72
2023/04/10 03:18:06;;;;;;;33.78;11.90;;;;;;;;;;5033182;28;20136;-72
2023/04/10 03:20:33;;;;;;;28.05;11.90;;;;;;;;;;5032935;28;20060;-73
2023/04/10 03:22:59;;;;;;;31.10;11.27;;;;;;;;;;5032998;28;20493;-73
2023/04/10 03:25:26;;;;;;;33.22;12.20;;;;;;;;;;5032949;28;20108;-72
2023/04/10 03:27:52;;;;;;;20.52;11.52;;;;;;;;;;5032790;28;20026;-73
2023/04/10 03:30:18;;;;;;;30.45;12.88;;;;;;;;;;5032327;28;20025;-74
2023/04/10 03:32:44;;;;;;;31.35;11.68;;;;;;;;;;5033115;28;20018;-73
2023/04/10 03:35:10;;;;;;;28.70;13.52;;;;;;;;;;5032794;28;20029;-73
2023/04/10 03:37:36;;;;;;;35.22;13.13;;;;;;;;;;5032859;28;20060;-73
2023/04/10 03:40:06;;;;;;;31.00;12.85;;;;;;;;;;5033270;28;20382;-73
2023/04/10 03:42:32;;;;;;;29.77;12.27;;;;;;;;;;5032700;28;20037;-73
2023/04/10 03:45:00;;;;;;;25.98;12.63;;;;;;;;;;5032491;28;20036;-73
2023/04/10 03:47:26;;;;;;;28.92;12.93;;;;;;;;;;5032690;28;20072;-74
2023/04/10 03:49:52;;;;;;;30.80;12.45;;;;;;;;;;5032560;28;20041;-73
2023/04/10 03:52:18;;;;;;;27.45;13.57;;;;;;;;;;5032549;28;20160;-73
2023/04/10 03:54:44;;;;;;;30.80;12.80;;;;;;;;;;5032493;28;20182;-74
2023/04/10 03:57:10;;;;;;;37.38;14.23;;;;;;;;;;5032325;28;20022;-74
2023/04/10 03:59:36;;;;;;;44.60;15.77;;;;;;;;;;5032343;28;20036;-73
2023/04/10 04:02:02;;;;;;;28.92;13.27;;;;;;;;;;5032222;28;20141;-73
2023/04/10 04:04:30;;;;;;;26.88;13.63;;;;;;;;;;5032485;28;20066;-73
2023/04/10 04:06:56;;;;;;;29.17;11.90;;;;;;;;;;5032247;28;20096;-73
2023/04/10 04:09:22;;;;;;;29.77;13.93;;;;;;;;;;5032135;28;20386;-71
2023/04/10 04:11:48;;;;;;;22.17;11.25;;;;;;;;;;5032093;28;20022;-73
2023/04/10 04:14:14;;;;;;;31.88;13.55;;;;;;;;;;5032175;28;20021;-73
2023/04/10 04:16:40;;;;;;;33.45;14.43;;;;;;;;;;5032166;28;20032;-71
2023/04/10 04:19:06;;;;;;;33.55;13.68;;;;;;;;;;5030752;28;20049;-72
2023/04/10 04:21:32;;;;;;;36.97;13.50;;;;;;;;;;5032179;28;20025;-70
2023/04/10 04:23:58;;;;;;;32.20;14.60;;;;;;;;;;5031852;28;20034;-71
2023/04/10 04:26:25;;;;;;;24.98;13.32;;;;;;;;;;5031656;28;20068;-67
2023/04/10 04:28:51;;;;;;;31.83;15.05;;;;;;;;;;5031769;28;20079;-65
2023/04/10 04:31:17;;;;;;;32.75;13.32;;;;;;;;;;5031753;28;20061;-65
2023/04/10 04:33:43;;;;;;;37.67;13.65;;;;;;;;;;5031969;28;20069;-64
2023/04/10 04:36:09;;;;;;;34.55;14.77;;;;;;;;;;5031852;28;20473;-63
2023/04/10 04:38:35;;;;;;;35.33;15.05;;;;;;;;;;5031516;28;20433;-63
2023/04/10 04:41:01;;;;;;;35.03;15.40;;;;;;;;;;5030652;28;20075;-62
2023/04/10 04:43:27;;;;;;;37.30;15.48;;;;;;;;;;5031614;28;20049;-63
2023/04/10 04:45:53;;;;;;;34.38;14.80;;;;;;;;;;5031460;28;20087;-63
2023/04/10 04:48:19;;;;;;;34.08;15.38;;;;;;;;;;5031670;28;20104;-62
2023/04/10 04:50:45;;;;;;;41.78;16.67;;;;;;;;;;5031332;28;20068;-64
2023/04/10 04:53:11;;;;;;;35.90;15.48;;;;;;;;;;5031587;28;20017;-64
2023/04/10 04:55:37;;;;;;;37.13;15.52;;;;;;;;;;5031250;28;20056;-64
2023/04/10 04:58:03;;;;;;;36.30;15.52;;;;;;;;;;5030146;28;20104;-64
2023/04/10 05:00:29;;;;;;;42.03;15.48;;;;;;;;;;5031448;28;20029;-66
2023/04/10 05:02:55;;;;;;;38.85;16.25;;;;;;;;;;5031658;28;20421;-64
2023/04/10 05:05:21;;;;;;;41.22;16.88;;;;;;;;;;5031143;28;20536;-64
2023/04/10 05:07:47;;;;;;;40.80;16.23;;;;;;;;;;5031375;28;20037;-64
2023/04/10 05:10:14;;;;;;;40.03;17.35;;;;;;;;;;5029908;28;20021;-64
2023/04/10 05:12:42;;;;;;;40.15;18.05;;;;;;;;;;5031291;28;20026;-64
2023/04/10 05:15:08;;;;;;;37.63;17.92;;;;;;;;;;5031368;28;20029;-63
2023/04/10 05:17:34;;;;;;;36.50;18.20;;;;;;;;;;5031444;28;20056;-64
2023/04/10 05:20:00;;;;;;;32.03;16.55;;;;;;;;;;5031233;28;20022;-64
2023/04/10 05:22:27;;;;;;;33.35;17.45;;;;;;;;;;5031023;28;20057;-64
2023/04/10 05:24:54;;;;;;;41.45;18.48;;;;;;;;;;5030884;28;20068;-65
2023/04/10 05:27:21;;;;;;;42.20;19.02;;;;;;;;;;5031164;28;20025;-63
2023/04/10 05:29:47;;;;;;;44.15;19.17;;;;;;;;;;5031312;28;20022;-62
2023/04/10 05:32:15;;;;;;;40.10;19.92;;;;;;;;;;5030948;28;20067;-63
2023/04/10 05:34:41;;;;;;;43.13;17.27;;;;;;;;;;5031209;28;20021;-63
2023/04/10 05:37:08;;;;;;;34.47;15.00;;;;;;;;;;5030831;28;20382;-63
2023/04/10 05:39:34;;;;;;;38.22;17.30;;;;;;;;;;5030776;28;20094;-64
2023/04/10 05:42:00;;;;;;;31.65;16.08;;;;;;;;;;5030732;28;20041;-62
2023/04/10 05:44:26;;;;;;;34.17;17.33;;;;;;;;;;5030826;28;20044;-64
2023/04/10 05:46:52;;;;;;;39.95;16.00;;;;;;;;;;5030897;28;20026;-64
2023/04/10 05:49:18;;;;;;;41.03;18.40;;;;;;;;;;5030742;28;20036;-64
2023/04/10 05:51:49;;;;;;;32.97;17.88;;;;;;;;;;5031320;28;20030;-63
2023/04/10 05:54:15;;;;;;;40.08;19.02;;;;;;;;;;5035023;28;20021;-64
2023/04/10 05:56:41;;;;;;;35.70;19.48;;;;;;;;;;5034443;28;20018;-63
2023/04/10 05:59:07;;;;;;;35.63;19.65;;;;;;;;;;5034330;28;20041;-63
2023/04/10 06:01:33;;;;;;;44.92;19.63;;;;;;;;;;5034632;28;20378;-62
2023/04/10 06:03:59;;;;;;;34.95;18.27;;;;;;;;;;5034858;28;20085;-63
2023/04/10 06:06:25;;;;;;;42.83;19.48;;;;;;;;;;5034404;28;20128;-64
2023/04/10 06:08:52;;;;;;;41.95;19.02;;;;;;;;;;5034669;28;20026;-64
2023/04/10 06:11:18;;;;;;;37.88;19.85;;;;;;;;;;5034353;28;20490;-63
2023/04/10 06:13:44;;;;;;;44.75;19.05;;;;;;;;;;5034429;28;20034;-62
2023/04/10 06:16:10;;;;;;;32.00;16.88;;;;;;;;;;5032910;28;20053;-65
2023/04/10 06:18:37;;;;;;;34.60;18.23;;;;;;;;;;5034432;28;20061;-64
2023/04/10 06:21:03;;;;;;;35.15;16.42;;;;;;;;;;5034155;28;20095;-63
2023/04/10 06:23:29;;;;;;;34.30;15.80;;;;;;;;;;5034306;28;20028;-63
2023/04/10 06:25:55;;;;;;;34.20;16.85;;;;;;;;;;5034132;28;20033;-65
2023/04/10 06:28:21;;;;;;;33.47;15.98;;;;;;;;;;5034142;28;20080;-64
2023/04/10 06:30:47;;;;;;;37.28;15.13;;;;;;;;;;5034473;28;20038;-63
2023/04/10 06:33:15;;;;;;;32.10;15.13;;;;;;;;;;5034000;28;20029;-63
2023/04/10 06:35:41;;;;;;;34.80;14.38;;;;;;;;;;5033941;28;20115;-64
2023/04/10 06:38:07;;;;;;;29.55;13.07;;;;;;;;;;5034090;28;20075;-63
2023/04/10 06:40:33;;;;;;;28.23;13.10;;;;;;;;;;5034047;28;20033;-63
2023/04/10 06:43:00;;;;;;;27.30;12.07;;;;;;;;;;5033816;28;20053;-63
2023/04/10 06:45:26;;;;;;;26.83;11.45;;;;;;;;;;5033710;28;20041;-63
2023/04/10 06:47:52;;;;;;;25.27;11.02;;;;;;;;;;5033669;28;20025;-64
2023/04/10 06:50:18;;;;;;;25.65;11.38;;;;;;;;;;5033646;28;20025;-63
2023/04/10 06:52:45;;;;;;;27.25;11.10;;;;;;;;;;5033673;28;20088;-63
2023/04/10 06:55:14;;;;;;;30.27;11.45;;;;;;;;;;5033911;28;20027;-65
2023/04/10 06:57:40;;;;;;;28.42;10.70;;;;;;;;;;5033364;28;20053;-62
2023/04/10 07:00:08;;;;;;;29.50;10.95;;;;;;;;;;5033492;28;20481;-66
2023/04/10 07:02:34;;;;;;;28.08;10.70;;;;;;;;;;5033566;28;20022;-64
2023/04/10 07:05:00;;;;;;;22.30;9.52;;;;;;;;;;5032270;28;20109;-63
2023/04/10 07:07:27;;;;;;;30.20;11.07;;;;;;;;;;5033525;28;20451;-65
2023/04/10 07:09:53;;;;;;;19.80;10.30;;;;;;;;;;5033311;28;20028;-63
2023/04/10 07:12:19;;;;;;;25.13;9.68;;;;;;;;;;5033541;28;20068;-63
2023/04/10 07:14:45;;;;;;;28.77;10.30;;;;;;;;;;5033248;28;20502;-63
2023/04/10 07:17:11;;;;;;;21.95;9.15;;;;;;;;;;5033168;28;20413;-63
2023/04/10 07:19:37;;;;;;;24.42;10.13;;;;;;;;;;5033156;28;20025;-63
2023/04/10 07:22:03;;;;;;;27.98;10.15;;;;;;;;;;5032984;28;20022;-63
2023/04/10 07:24:31;;;;;;;24.60;9.02;;;;;;;;;;5033049;28;20091;-63
2023/04/10 07:26:57;;;;;;;21.20;8.82;;;;;;;;;;5033005;28;20490;-63
2023/04/10 07:29:23;;;;;;;24.77;9.10;;;;;;;;;;5032900;28;20029;-64
2023/04/10 07:31:49;;;;;;;23.30;8.43;;;;;;;;;;5032892;28;20036;-63
2023/04/10 07:34:15;;;;;;;28.85;8.60;;;;;;;;;;5033028;28;20040;-63
2023/04/10 07:36:41;;;;;;;18.40;7.35;;;;;;;;;;5032715;28;20101;-63
2023/04/10 07:39:07;;;;;;;19.20;8.23;;;;;;;;;;5032926;28;20076;-62
2023/04/10 07:41:34;;;;;;;23.75;7.47;;;;;;;;;;5032498;28;20560;-64
2023/04/10 07:44:00;;;;;;;27.05;9.77;;;;;;;;;;5032622;28;20036;-64
2023/04/10 07:46:26;;;;;;;31.58;8.25;;;;;;;;;;5032587;28;20037;-63
2023/04/10 07:48:54;;;;;;;17.23;7.65;;;;;;;;;;5032819;28;20018;-63
2023/04/10 07:51:20;;;;;;;29.02;8.75;;;;;;;;;;5032572;28;20022;-63
2023/04/10 07:53:46;;;;;;;25.15;7.25;;;;;;;;;;5032445;28;20498;-65
2023/04/10 07:56:16;;;;;;;19.83;8.43;;;;;;;;;;5032404;28;20088;-63
2023/04/10 07:58:42;;;;;;;18.58;7.75;;;;;;;;;;5032273;28;20436;-62
2023/04/10 08:01:08;;;;;;;37.78;9.52;;;;;;;;;;5032338;28;20029;-63
2023/04/10 08:03:41;;;;;;;22.58;8.63;;;;;;;;;;5032498;28;20079;-63
2023/04/10 08:06:08;;;;;;;28.00;8.25;;;;;;;;;;5032071;28;20030;-63
2023/04/10 08:08:36;;;;;;;21.35;7.53;;;;;;;;;;5032326;28;20049;-63
2023/04/10 08:11:03;;;;;;;21.50;7.25;;;;;;;;;;5031970;28;20386;-63
2023/04/10 08:13:29;;;;;;;25.13;8.32;;;;;;;;;;5032084;28;20103;-62
2023/04/10 08:15:55;;;;;;;21.02;7.60;;;;;;;;;;5032172;28;20029;-63
2023/04/10 08:18:21;;;;;;;22.40;7.38;;;;;;;;;;5032071;28;20064;-63
2023/04/10 08:20:47;;;;;;;16.63;6.93;;;;;;;;;;5031652;28;20033;-63
2023/04/10 08:23:13;;;;;;;27.83;7.35;;;;;;;;;;5031747;28;20053;-63
2023/04/10 08:25:39;;;;;;;18.90;7.05;;;;;;;;;;5031735;28;20068;-63
2023/04/10 08:28:05;;;;;;;27.70;7.03;;;;;;;;;;5031567;28;20041;-62
2023/04/10 08:30:31;;;;;;;17.80;5.95;;;;;;;;;;5030211;28;20029;-63
2023/04/10 08:32:57;;;;;;;20.90;7.00;;;;;;;;;;5031603;28;20092;-63
2023/04/10 08:35:23;;;;;;;19.42;7.32;;;;;;;;;;5031967;28;20087;-63
2023/04/10 08:37:49;;;;;;;19.95;6.80;;;;;;;;;;5031555;28;20104;-64
2023/04/10 08:40:15;;;;;;;35.03;9.13;;;;;;;;;;5031149;28;20550;-63
2023/04/10 08:42:41;;;;;;;31.75;7.50;;;;;;;;;;5031201;28;20497;-63
2023/04/10 08:45:07;;;;;;;27.88;7.45;;;;;;;;;;5031467;28;20493;-64
2023/04/10 08:47:39;;;;;;;21.88;6.97;;;;;;;;;;5031482;28;20026;-63
2023/04/10 08:50:10;;;;;;;20.75;7.70;;;;;;;;;;5031750;28;20025;-63
2023/04/10 08:52:37;;;;;;;30.20;10.13;;;;;;;;;;5031461;28;20029;-63
2023/04/10 08:55:07;;;;;;;25.63;9.30;;;;;;;;;;5031293;28;20486;-63
2023/04/10 08:57:33;;;;;;;25.23;8.18;;;;;;;;;;5031235;28;20037;-63
2023/04/10 08:59:59;;;;;;;24.55;7.65;;;;;;;;;;5031324;28;20021;-63
2023/04/10 09:02:25;;;;;;;23.15;7.22;;;;;;;;;;5031404;28;20022;-63
2023/04/10 09:04:56;;;;;;;21.52;7.00;;;;;;;;;;5031064;28;20029;-63
2023/04/10 09:07:22;;;;;;;21.75;6.22;;;;;;;;;;5031756;28;20120;-62
2023/04/10 09:09:48;;;;;;;23.75;7.22;;;;;;;;;;5031141;28;20021;-61
2023/04/10 09:12:15;;;;;;;27.65;7.18;;;;;;;;;;5031164;28;20022;-62
2023/04/10 09:14:42;;;;;;;29.77;5.88;;;;;;;;;;5031177;28;20462;-62
2023/04/10 09:17:21;;;;;;;19.25;6.38;;;;;;;;;;5031113;28;20030;-63
2023/04/10 09:19:51;;;;;;;25.10;6.30;;;;;;;;;;5031168;28;20532;-63
2023/04/10 09:22:18;;;;;;;23.75;5.68;;;;;;;;;;5031058;28;20034;-63
2023/04/10 09:24:45;;;;;;;29.85;6.18;;;;;;;;;;5031137;28;20044;-61
2023/04/10 09:27:26;;;;;;;31.00;5.95;;;;;;;;;;5031107;28;20382;-61
2023/04/10 09:29:52;;;;;;;43.75;7.20;;;;;;;;;;5035200;28;20021;-61
2023/04/10 09:32:38;;;;;;;35.33;5.57;;;;;;;;;;5035120;28;20091;-62
2023/04/10 09:35:04;;;;;;;25.52;5.55;;;;;;;;;;5035025;28;20155;-62
2023/04/10 09:37:37;;;;;;;28.27;5.68;;;;;;;;;;5033583;28;20079;-62
2023/04/10 09:40:03;;;;;;;31.70;6.10;;;;;;;;;;5035024;28;20394;-62
2023/04/10 09:42:33;;;;;;;23.13;4.90;;;;;;;;;;5034666;28;20080;-61
2023/04/10 09:45:00;;;;;;;34.83;5.75;;;;;;;;;;5034659;28;20037;-61
2023/04/10 09:47:26;;;;;;;20.15;5.07;;;;;;;;;;5034878;28;20017;-61
2023/04/10 09:49:53;;;;;;;21.63;5.60;;;;;;;;;;5034610;28;20028;-62
2023/04/10 09:52:20;;;;;;;33.28;6.38;;;;;;;;;;5034840;28;20021;-61
2023/04/10 09:54:47;;;;;;;20.88;4.78;;;;;;;;;;5034656;28;20017;-61
2023/04/10 09:57:17;;;;;;;0.20;0.20;;;;;;;;;;5034566;28;20055;-62
2023/04/10 09:59:45;;;;;;;0.50;0.50;;;;;;;;;;5034657;28;20506;-60
2023/04/10 10:02:12;;;;;;;0.30;0.30;;;;;;;;;;5034484;28;20104;-59
2023/04/10 10:04:40;;;;;;;0.20;0.20;;;;;;;;;;5034469;28;20116;-60
2023/04/10 10:07:06;;;;;;;0.10;0.10;;;;;;;;;;5034455;28;20025;-60
2023/04/10 10:09:32;;;;;;;0.38;0.38;;;;;;;;;;5034361;28;20036;-61
2023/04/10 10:11:58;;;;;;;0.20;0.20;;;;;;;;;;5034407;28;20409;-61
2023/04/10 10:14:26;;;;;;;1.40;1.40;;;;;;;;;;5034260;28;20025;-61
2023/04/10 10:16:56;;;;;;;0.20;0.20;;;;;;;;;;5034123;28;20060;-62
2023/04/10 10:19:25;;;;;;;0.25;0.25;;;;;;;;;;5034245;28;20029;-61
2023/04/10 10:21:51;;;;;;;0.50;0.50;;;;;;;;;;5034181;28;20053;-62
2023/04/10 10:24:19;;;;;;;3.33;1.15;;;;;;;;;;5033986;28;20025;-61
2023/04/10 10:26:46;;;;;;;0.10;0.10;;;;;;;;;;5034050;28;20095;-62
2023/04/10 10:29:16;;;;;;;0.30;0.30;;;;;;;;;;5033710;28;20052;-61
2023/04/10 10:31:42;;;;;;;0.17;0.17;;;;;;;;;;5033892;28;20021;-61
2023/04/10 10:34:08;;;;;;;1.45;0.90;;;;;;;;;;5034121;28;20033;-61
2023/04/10 10:36:35;;;;;;;0.35;0.35;;;;;;;;;;5034029;28;20155;-63
2023/04/10 10:39:01;;;;;;;0.15;0.15;;;;;;;;;;5033584;28;20411;-63
2023/04/10 10:41:50;;;;;;;0.68;0.68;;;;;;;;;;5033971;28;20065;-63
2023/04/10 10:44:26;;;;;;;0.10;0.10;;;;;;;;;;5033263;28;20033;-62
2023/04/10 10:47:09;;;;;;;3.40;1.75;;;;;;;;;;5033544;28;20509;-62
2023/04/10 10:49:55;;;;;;;0.40;0.40;;;;;;;;;;5033551;28;20026;-63
2023/04/10 10:52:37;;;;;;;0.28;0.28;;;;;;;;;;5033591;28;20053;-63
2023/04/10 10:55:24;;;;;;;1.03;1.03;;;;;;;;;;5033709;28;20030;-62
2023/04/10 10:57:51;;;;;;;0.17;0.17;;;;;;;;;;5033372;28;20091;-64
2023/04/10 11:00:19;;;;;;;0.15;0.15;;;;;;;;;;5033465;28;20116;-62
2023/04/10 11:03:05;;;;;;;0.20;0.20;;;;;;;;;;5033384;28;20022;-64
2023/04/10 11:05:53;;;;;;;0.20;0.20;;;;;;;;;;5033340;28;20036;-63
2023/04/10 11:08:42;;;;;;;1.00;0.80;;;;;;;;;;5033373;28;20187;-65
2023/04/10 11:11:11;;;;;;;0.20;0.20;;;;;;;;;;5033127;28;20130;-63
2023/04/10 11:13:50;;;;;;;0.40;0.40;;;;;;;;;;5033204;28;20026;-63
2023/04/10 11:16:17;;;;;;;0.20;0.20;;;;;;;;;;5033172;28;20033;-63
2023/04/10 11:18:46;;;;;;;0.28;0.28;;;;;;;;;;5033355;28;20037;-63
2023/04/10 11:21:22;;;;;;;0.50;0.50;;;;;;;;;;5032869;28;20025;-64
2023/04/10 11:23:54;;;;;;;1.17;0.38;;;;;;;;;;5033100;28;20029;-63
2023/04/10 11:26:35;;;;;;;0.20;0.20;;;;;;;;;;5033116;28;20042;-64
2023/04/10 11:29:02;;;;;;;0.15;0.15;;;;;;;;;;5032807;28;20037;-64
2023/04/10 11:31:28;;;;;;;5.10;2.38;;;;;;;;;;5032939;28;20026;-63
2023/04/10 11:33:57;;;;;;;0.10;0.10;;;;;;;;;;5032970;28;20082;-64
2023/04/10 11:36:23;;;;;;;0.10;0.10;;;;;;;;;;5033092;28;20166;-65
2023/04/10 11:38:56;;;;;;;0.70;0.70;;;;;;;;;;5032723;28;20473;-65
2023/04/10 11:41:33;;;;;;;0.45;0.45;;;;;;;;;;5032510;28;20025;-65
2023/04/10 11:43:59;;;;;;;1.58;1.48;;;;;;;;;;5032604;28;20029;-65
2023/04/10 11:46:26;;;;;;;0.30;0.30;;;;;;;;;;5032563;28;20118;-65
2023/04/10 11:48:55;;;;;;;0.82;0.82;;;;;;;;;;5032823;28;20028;-66
2023/04/10 11:51:22;;;;;;;0.95;0.57;;;;;;;;;;5032330;28;20021;-66
2023/04/10 11:53:48;;;;;;;2.92;1.45;;;;;;;;;;5032608;28;20018;-65
2023/04/10 11:56:18;;;;;;;0.43;0.43;;;;;;;;;;5032509;28;20207;-66
2023/04/10 11:58:44;;;;;;;1.30;1.30;;;;;;;;;;5032430;28;20036;-66
2023/04/10 12:01:13;;;;;;;1.30;1.25;;;;;;;;;;5032725;28;20084;-66
2023/04/10 12:03:43;;;;;;;0.57;0.57;;;;;;;;;;5032267;28;20038;-66
2023/04/10 12:06:12;;;;;;;1.63;1.52;;;;;;;;;;5032636;28;20037;-66
2023/04/10 12:08:56;;;;;;;1.63;1.58;;;;;;;;;;5032305;28;20482;-66
2023/04/10 12:11:23;;;;;;;0.20;0.20;;;;;;;;;;5032173;28;20470;-66
2023/04/10 12:13:53;;;;;;;0.20;0.20;;;;;;;;;;5032086;28;20080;-67
2023/04/10 12:16:20;;;;;;;0.75;0.75;;;;;;;;;;5032172;28;20482;-69
2023/04/10 12:18:46;;;;;;;33.67;5.85;;;;;;;;;;5032187;28;20235;-68
2023/04/10 12:21:12;;;;;;;42.63;5.40;;;;;;;;;;5032134;28;20033;-68
2023/04/10 12:23:39;;;;;;;27.92;6.35;;;;;;;;;;5031830;28;20072;-68
2023/04/10 12:26:06;;;;;;;34.22;5.20;;;;;;;;;;5032155;28;20029;-68
2023/04/10 12:28:32;;;;;;;25.95;5.30;;;;;;;;;;5031652;28;20028;-68
2023/04/10 12:30:58;;;;;;;40.42;6.05;;;;;;;;;;5031835;28;20037;-68
2023/04/10 12:33:25;;;;;;;42.72;5.78;;;;;;;;;;5031788;28;20049;-68
2023/04/10 12:35:53;;;;;;;41.83;6.57;;;;;;;;;;5031895;28;20030;-68
2023/04/10 12:38:38;;;;;;;34.72;6.60;;;;;;;;;;5031399;28;20061;-68
2023/04/10 12:41:05;;;;;;;37.45;6.15;;;;;;;;;;5031878;28;20033;-68
2023/04/10 12:43:35;;;;;;;32.90;5.20;;;;;;;;;;5031667;28;20045;-68
2023/04/10 12:46:02;;;;;;;37.60;5.95;;;;;;;;;;5031568;28;20103;-68
2023/04/10 12:48:28;;;;;;;41.55;6.70;;;;;;;;;;5031327;28;20047;-68
2023/04/10 12:50:54;;;;;;;29.25;5.05;;;;;;;;;;5031446;28;20026;-68
2023/04/10 12:53:20;;;;;;;28.17;4.85;;;;;;;;;;5031593;28;20470;-68
2023/04/10 12:55:58;;;;;;;34.03;4.72;;;;;;;;;;5031326;28;20534;-68
2023/04/10 12:58:27;;;;;;;33.88;6.72;;;;;;;;;;5031434;28;20029;-69
2023/04/10 13:00:56;;;;;;;29.65;5.25;;;;;;;;;;5030753;28;20394;-69
2023/04/10 13:03:22;;;;;;;23.38;4.50;;;;;;;;;;5031035;28;20029;-69
2023/04/10 13:05:48;;;;;;;34.38;6.07;;;;;;;;;;5031244;28;20041;-68
2023/04/10 13:08:15;;;;;;;32.92;5.03;;;;;;;;;;5031308;28;20275;-69
2023/04/10 13:10:42;;;;;;;31.33;6.13;;;;;;;;;;5031226;28;20087;-69
2023/04/10 13:13:12;;;;;;;41.25;7.03;;;;;;;;;;5031102;28;20030;-69
2023/04/10 13:15:38;;;;;;;36.25;5.70;;;;;;;;;;5031052;28;20108;-69
2023/04/10 13:18:07;;;;;;;26.42;5.22;;;;;;;;;;5031212;28;20033;-68
2023/04/10 13:20:35;;;;;;;39.30;5.40;;;;;;;;;;5029830;28;20402;-68
2023/04/10 13:23:03;;;;;;;38.38;5.93;;;;;;;;;;5031370;28;20096;-70
2023/04/10 13:25:32;;;;;;;30.80;5.43;;;;;;;;;;5030749;28;20466;-69
2023/04/10 13:27:59;;;;;;;33.38;5.40;;;;;;;;;;5030959;28;20029;-68
2023/04/10 13:30:25;;;;;;;34.25;5.20;;;;;;;;;;5029670;28;20087;-68
2023/04/10 13:32:51;;;;;;;28.60;4.60;;;;;;;;;;5030874;28;20033;-71
2023/04/10 13:35:18;;;;;;;43.03;6.78;;;;;;;;;;5031156;28;20025;-70
2023/04/10 13:37:44;;;;;;;24.60;6.40;;;;;;;;;;5031021;28;20025;-69
2023/04/10 13:40:11;;;;;;;47.05;6.15;;;;;;;;;;5030948;28;20024;-69
2023/04/10 13:42:37;;;;;;;38.75;5.40;;;;;;;;;;5030936;28;20065;-71
2023/04/10 13:45:03;;;;;;;35.95;7.82;;;;;;;;;;5030783;28;20215;-69
2023/04/10 13:47:29;;;;;;;27.42;5.15;;;;;;;;;;5031104;28;20466;-70
2023/04/10 13:49:55;;;;;;;41.13;6.20;;;;;;;;;;5030954;28;20032;-69
2023/04/10 13:52:21;;;;;;;30.08;4.93;;;;;;;;;;5031238;28;20025;-68
2023/04/10 13:54:47;;;;;;;30.92;5.07;;;;;;;;;;5030817;28;20075;-69
2023/04/10 13:57:13;;;;;;;17.50;4.55;;;;;;;;;;5030565;28;20493;-71
2023/04/10 13:59:40;;;;;;;33.17;5.13;;;;;;;;;;5030790;28;20033;-71
2023/04/10 14:02:06;;;;;;;19.60;4.65;;;;;;;;;;5029343;28;20482;-71
2023/04/10 14:04:32;;;;;;;44.78;6.97;;;;;;;;;;5030793;28;20036;-71
2023/04/10 14:06:59;;;;;;;37.78;5.20;;;;;;;;;;5031050;28;20029;-68
2023/04/10 14:09:26;;;;;;;38.88;6.53;;;;;;;;;;5030563;28;20530;-72
2023/04/10 14:11:52;;;;;;;28.05;4.55;;;;;;;;;;5030595;28;20049;-70
2023/04/10 14:14:18;;;;;;;18.70;4.05;;;;;;;;;;5033915;28;20100;-72
2023/04/10 14:16:44;;;;;;;30.75;4.75;;;;;;;;;;5033136;28;20048;-72
2023/04/10 14:19:10;;;;;;;31.92;4.53;;;;;;;;;;5034280;28;20026;-70
2023/04/10 14:21:36;;;;;;;38.92;6.18;;;;;;;;;;5034592;28;20025;-70
2023/04/10 14:24:02;;;;;;;37.05;5.47;;;;;;;;;;5034243;28;20101;-70
2023/04/10 14:26:28;;;;;;;34.83;5.95;;;;;;;;;;5034035;28;20030;-70
2023/04/10 14:28:54;;;;;;;37.60;6.18;;;;;;;;;;5034358;28;20071;-70
2023/04/10 14:31:20;;;;;;;30.60;6.55;;;;;;;;;;5034248;28;20116;-71